THA225 WAJJ-KLAX
Flight info
| Callsign | THA225 |
|---|---|
| Flight time | N/A |
| Altitude | 31000 |
| Route | VANKA DCT VNO DCT PIKOK DCT 03N150E/N0498F330 10N160E 16N170E 21N180E/N0487F350 25N170W 29N160W 32N150W/N0473F370 34N140W 34N130W DCT SNAXX RYDRR2 |
| Aircraft | B77W/H-SDE1E2E3FGHIJ2J3J4J5M1RWXY/LB1D1 |
Departure
| Time | 2026-04-22 21:43 |
|---|---|
| Airport | Dortheys Hiyo Eluay International Airport (WAJJ) |
Arrival
| Time | N/A |
|---|---|
| Airport | Los Angeles International Airport (KLAX) |
| Time | Latitude | Longitude | Altitude | Speed | Heading |
|---|---|---|---|---|---|
| 2026-04-22 21:27 | -2.57025 | 140.51084 | 333 ft | 0 kts | 214° |
| 2026-04-22 21:39 | -2.57029 | 140.51078 | 334 ft | 2 kts | 239° |
| 2026-04-22 21:39 | -2.57026 | 140.51062 | 337 ft | 2 kts | 293° |
| 2026-04-22 21:39 | -2.57006 | 140.51040 | 334 ft | 5 kts | 313° |
| 2026-04-22 21:39 | -2.56985 | 140.51016 | 335 ft | 5 kts | 306° |
| 2026-04-22 21:40 | -2.56979 | 140.50986 | 337 ft | 5 kts | 264° |
| 2026-04-22 21:40 | -2.56996 | 140.50960 | 337 ft | 5 kts | 222° |
| 2026-04-22 21:40 | -2.57020 | 140.50942 | 338 ft | 0 kts | 216° |
| 2026-04-22 21:41 | -2.57037 | 140.50930 | 347 ft | 9 kts | 216° |
| 2026-04-22 21:41 | -2.57079 | 140.50899 | 352 ft | 4 kts | 216° |
| 2026-04-22 21:41 | -2.57109 | 140.50890 | 343 ft | 5 kts | 181° |
| 2026-04-22 21:41 | -2.57138 | 140.50904 | 350 ft | 5 kts | 142° |
| 2026-04-22 21:42 | -2.57146 | 140.50913 | 355 ft | 0 kts | 127° |
| 2026-04-22 21:42 | -2.57250 | 140.51055 | 335 ft | 67 kts | 126° |
| 2026-04-22 21:42 | -2.57718 | 140.51678 | 320 ft | 155 kts | 127° |
| 2026-04-22 21:42 | -2.58518 | 140.52735 | 519 ft | 211 kts | 127° |
| 2026-04-22 21:43 | -2.59404 | 140.53921 | 1567 ft | 214 kts | 127° |
| 2026-04-22 21:43 | -2.60300 | 140.55125 | 2539 ft | 225 kts | 126° |
| 2026-04-22 21:43 | -2.61284 | 140.56447 | 2792 ft | 245 kts | 126° |
| 2026-04-22 21:43 | -2.62333 | 140.57854 | 3200 ft | 259 kts | 126° |
| 2026-04-22 21:44 | -2.63426 | 140.59317 | 3781 ft | 266 kts | 127° |
| 2026-04-22 21:44 | -2.64402 | 140.60892 | 4362 ft | 270 kts | 107° |
| 2026-04-22 21:44 | -2.64523 | 140.62760 | 4896 ft | 275 kts | 78° |
| 2026-04-22 21:44 | -2.63919 | 140.64565 | 5536 ft | 275 kts | 69° |
| 2026-04-22 21:45 | -2.63227 | 140.66365 | 6211 ft | 278 kts | 69° |
| 2026-04-22 21:45 | -2.62737 | 140.68223 | 6746 ft | 279 kts | 90° |
| 2026-04-22 21:45 | -2.63088 | 140.70128 | 7261 ft | 280 kts | 108° |
| 2026-04-22 21:45 | -2.63685 | 140.72002 | 7845 ft | 284 kts | 107° |
| 2026-04-22 21:46 | -2.64266 | 140.73895 | 8518 ft | 285 kts | 107° |
| 2026-04-22 21:46 | -2.64846 | 140.75796 | 9166 ft | 287 kts | 107° |
| 2026-04-22 21:46 | -2.65432 | 140.77716 | 9792 ft | 290 kts | 107° |
| 2026-04-22 21:46 | -2.66023 | 140.79655 | 10273 ft | 297 kts | 107° |
| 2026-04-22 21:47 | -2.66646 | 140.81703 | 10421 ft | 318 kts | 107° |
| 2026-04-22 21:47 | -2.67309 | 140.83884 | 10587 ft | 338 kts | 107° |
| 2026-04-22 21:47 | -2.68012 | 140.86199 | 10738 ft | 358 kts | 107° |
| 2026-04-22 21:47 | -2.68751 | 140.88633 | 11038 ft | 372 kts | 106° |
| 2026-04-22 21:48 | -2.69512 | 140.91140 | 11505 ft | 381 kts | 106° |
| 2026-04-22 21:48 | -2.70286 | 140.93690 | 12097 ft | 385 kts | 106° |
| 2026-04-22 21:48 | -2.71057 | 140.96229 | 12754 ft | 388 kts | 106° |
| 2026-04-22 21:48 | -2.71830 | 140.98820 | 13381 ft | 388 kts | 103° |
| 2026-04-22 21:49 | -2.72128 | 141.01508 | 13763 ft | 394 kts | 83° |
| 2026-04-22 21:49 | -2.71679 | 141.04200 | 14131 ft | 396 kts | 79° |
| 2026-04-22 21:49 | -2.71226 | 141.06933 | 14618 ft | 400 kts | 81° |
| 2026-04-22 21:49 | -2.70817 | 141.09688 | 15193 ft | 402 kts | 82° |
| 2026-04-22 21:50 | -2.70550 | 141.11564 | 15567 ft | 404 kts | 82° |
| 2026-04-22 21:50 | -2.70029 | 141.15269 | 16230 ft | 409 kts | 82° |
| 2026-04-22 21:50 | -2.69631 | 141.18098 | 16727 ft | 413 kts | 82° |
| 2026-04-22 21:50 | -2.69227 | 141.20953 | 17221 ft | 417 kts | 82° |
| 2026-04-22 21:51 | -2.68818 | 141.23833 | 17736 ft | 420 kts | 82° |
| 2026-04-22 21:51 | -2.68394 | 141.26735 | 18204 ft | 423 kts | 80° |
| 2026-04-22 21:51 | -2.67705 | 141.29607 | 18605 ft | 427 kts | 72° |
| 2026-04-22 21:52 | -2.65357 | 141.35083 | 19470 ft | 431 kts | 61° |
| 2026-04-22 21:52 | -2.63896 | 141.37715 | 19880 ft | 434 kts | 61° |
| 2026-04-22 21:52 | -2.62415 | 141.40357 | 20301 ft | 437 kts | 61° |
| 2026-04-22 21:52 | -2.60923 | 141.43016 | 20707 ft | 440 kts | 61° |
| 2026-04-22 21:53 | -2.59426 | 141.45694 | 21114 ft | 443 kts | 61° |
| 2026-04-22 21:53 | -2.57923 | 141.48395 | 21518 ft | 445 kts | 61° |
| 2026-04-22 21:53 | -2.56417 | 141.51111 | 21923 ft | 448 kts | 61° |
| 2026-04-22 21:53 | -2.54902 | 141.53849 | 22314 ft | 451 kts | 61° |
| 2026-04-22 21:54 | -2.53896 | 141.55671 | 22563 ft | 453 kts | 61° |
| 2026-04-22 21:54 | -2.52368 | 141.58439 | 22940 ft | 456 kts | 61° |
| 2026-04-22 21:54 | -2.50834 | 141.61219 | 23298 ft | 459 kts | 61° |
| 2026-04-22 21:54 | -2.49289 | 141.64020 | 23648 ft | 461 kts | 61° |
| 2026-04-22 21:55 | -2.47735 | 141.66837 | 23963 ft | 463 kts | 61° |
| 2026-04-22 21:55 | -2.46175 | 141.69663 | 24286 ft | 465 kts | 61° |
| 2026-04-22 21:55 | -2.44080 | 141.73459 | 24704 ft | 468 kts | 61° |
| 2026-04-22 21:55 | -2.43039 | 141.75344 | 24911 ft | 469 kts | 61° |
| 2026-04-22 21:56 | -2.41459 | 141.78206 | 25211 ft | 471 kts | 61° |
| 2026-04-22 21:56 | -2.39870 | 141.81083 | 25512 ft | 473 kts | 61° |
| 2026-04-22 21:56 | -2.38279 | 141.83965 | 25804 ft | 475 kts | 61° |
| 2026-04-22 21:56 | -2.36679 | 141.86862 | 26109 ft | 477 kts | 61° |
| 2026-04-22 21:57 | -2.35072 | 141.89772 | 26386 ft | 479 kts | 61° |
| 2026-04-22 21:57 | -2.33461 | 141.92690 | 26685 ft | 481 kts | 61° |
| 2026-04-22 21:57 | -2.31842 | 141.95621 | 26959 ft | 483 kts | 61° |
| 2026-04-22 21:57 | -2.30215 | 141.98567 | 27227 ft | 485 kts | 61° |
| 2026-04-22 21:58 | -2.28582 | 142.01524 | 27502 ft | 486 kts | 61° |
| 2026-04-22 21:58 | -2.26942 | 142.04493 | 27754 ft | 489 kts | 61° |
| 2026-04-22 21:58 | -2.25296 | 142.07473 | 28004 ft | 491 kts | 61° |
| 2026-04-22 21:58 | -2.23646 | 142.10459 | 28247 ft | 492 kts | 61° |
| 2026-04-22 21:59 | -2.21986 | 142.13463 | 28492 ft | 494 kts | 61° |
| 2026-04-22 21:59 | -2.20321 | 142.16477 | 28724 ft | 496 kts | 61° |
| 2026-04-22 21:59 | -2.18651 | 142.19499 | 28952 ft | 497 kts | 61° |
| 2026-04-22 21:59 | -2.16979 | 142.22525 | 29223 ft | 498 kts | 61° |
| 2026-04-22 22:00 | -2.15304 | 142.25555 | 29519 ft | 497 kts | 61° |
| 2026-04-22 22:00 | -2.13635 | 142.28576 | 29891 ft | 496 kts | 61° |
| 2026-04-22 22:00 | -2.11971 | 142.31587 | 30186 ft | 495 kts | 61° |
| 2026-04-22 22:00 | -2.10329 | 142.34557 | 30471 ft | 494 kts | 61° |
| 2026-04-22 22:01 | -2.08671 | 142.37558 | 30747 ft | 493 kts | 61° |
| 2026-04-22 22:01 | -2.05336 | 142.43591 | 30868 ft | 496 kts | 61° |
| 2026-04-22 22:02 | -2.02006 | 142.49613 | 30901 ft | 494 kts | 61° |
| 2026-04-22 22:02 | -1.98690 | 142.55611 | 30906 ft | 492 kts | 61° |
| 2026-04-22 22:03 | -1.95377 | 142.61603 | 30910 ft | 492 kts | 61° |
| 2026-04-22 22:03 | -1.92063 | 142.67596 | 30911 ft | 493 kts | 61° |
| 2026-04-22 22:04 | -1.88742 | 142.73601 | 30908 ft | 494 kts | 61° |
| 2026-04-22 22:04 | -1.85414 | 142.79616 | 30909 ft | 495 kts | 61° |
| 2026-04-22 22:05 | -1.82085 | 142.85635 | 30909 ft | 495 kts | 61° |
| 2026-04-22 22:05 | -1.78751 | 142.91661 | 30910 ft | 495 kts | 61° |